Main page
METAR-TAF:

METAR-TAF

Airports :

Termez, Uzbekistan

Termez Airport

latitude: 37-14N, longitude: 067-16E, elevation: 302 m

Current weather observation

The report was made 47 minutes ago, at 18:30 UTC
Wind 4 kt from the Southeast
Temperature 12°C
Humidity 47%
Pressure 1017 hPa
Visibility: 7000 m

METAR: UTST 211830Z 13004KT 7000 NSC 12/01 Q1017 R88/CLRD70 NOSIG

Time: 00:17 (19:17 UTC)

Forecast

The report was made 2 hours and 17 minutes ago, at 17:00 UTC
Forecast valid from 21 at 18 UTC to 22 at 18 UTC
Wind 6 kt from variable directions
Visibility: 5000 m
haze
Temporary
from 21 at 18 UTC to 21 at 24 UTC
Wind 12 kt from the Southwest with gusts up to 22 kt
Visibility: 2400 m
haze
Temporary
from 22 at 00 UTC to 22 at 06 UTC
Visibility: 1500 m
haze

TAF: UTST 211700Z 2118/2218 VRB06KT 5000 HZ NSC TEMPO 2118/2124 23012G22KT 2400 HZ TEMPO 2200/2206 1500 HZ

Weather observations and forecasts of more than 4000 airports (METAR and TAF reports).

The available stations are represented by yellow and red dots on the map.

Hover mouse over dot to see the name of the station.

Then click to see weather observations and forecasts.

To change the map : click on the green buttons with a black cross to zoom in, on the green button with a dash to zoom out, or on the green arrows for adjacent maps.


METAR-TAF: